createdAt,value
2019-02-04T00:14:32.553Z,10.97
2019-02-04T00:38:48.976Z,10.37
2019-02-04T00:49:59.699Z,12.20
2019-02-04T01:06:15.780Z,11.77
2019-02-04T01:09:37.564Z,10.87
2019-02-04T01:12:20.938Z,10.53
2019-02-04T01:15:19.123Z,10.00
2019-02-04T01:24:34.025Z,10.50
2019-02-04T01:30:34.885Z,11.63
2019-02-04T01:47:14.654Z,11.73
2019-02-04T03:21:06.634Z,12.47
2019-02-04T03:41:26.343Z,12.83
2019-02-04T03:48:25.672Z,12.77
2019-02-04T04:20:58.288Z,10.80
2019-02-04T05:29:14.016Z,21.97
2019-02-04T05:32:23.255Z,17.13
2019-02-04T05:35:24.400Z,15.57
2019-02-04T05:39:01.081Z,14.23
2019-02-04T05:44:17.604Z,18.20
2019-02-04T05:47:09.840Z,19.77
2019-02-04T06:38:34.652Z,15.90
2019-02-04T06:41:04.185Z,19.20
2019-02-04T06:43:34.467Z,16.67
2019-02-04T06:46:04.855Z,18.00
2019-02-04T06:49:33.309Z,18.23
2019-02-04T06:55:34.790Z,22.70
2019-02-04T06:58:04.631Z,23.50
2019-02-04T07:00:34.083Z,20.63
2019-02-04T07:03:03.963Z,23.53
2019-02-04T07:05:43.537Z,19.83
2019-02-04T07:08:04.872Z,18.87
2019-02-04T07:10:34.225Z,22.40
2019-02-04T07:13:03.381Z,20.90
2019-02-04T07:15:32.623Z,20.93
2019-02-04T07:18:03.272Z,18.83
2019-02-04T07:20:32.579Z,19.20
2019-02-04T07:23:01.945Z,19.53
2019-02-04T07:25:31.242Z,17.43
2019-02-04T07:28:00.465Z,19.50
2019-02-04T07:30:30.259Z,19.23
2019-02-04T07:32:59.676Z,19.00
2019-02-04T07:35:29.017Z,18.50
2019-02-04T07:37:58.342Z,18.20
2019-02-04T07:40:29.765Z,17.37
2019-02-04T07:42:58.894Z,17.03
2019-02-04T07:45:28.253Z,16.70
2019-02-04T07:47:57.557Z,17.77
2019-02-04T07:50:26.962Z,17.90
2019-02-04T07:52:56.825Z,18.53
2019-02-04T07:55:26.528Z,17.67
2019-02-04T07:57:57.275Z,17.47
2019-02-04T08:00:29.518Z,17.57
2019-02-04T08:02:58.780Z,19.13
2019-02-04T08:05:28.045Z,23.67
2019-02-04T08:07:57.456Z,18.77
2019-02-04T08:10:26.892Z,18.40
2019-02-04T08:13:01.521Z,20.30
2019-02-04T08:15:35.338Z,19.17
2019-02-04T08:18:04.928Z,19.17
2019-02-04T08:20:34.128Z,18.63
2019-02-04T08:23:03.343Z,17.80
2019-02-04T08:25:32.661Z,18.00
2019-02-04T08:28:01.881Z,17.50
2019-02-04T08:30:33.027Z,18.87
2019-02-04T08:33:02.533Z,16.60
2019-02-04T08:35:32.300Z,17.90
2019-02-04T08:38:01.810Z,19.50
2019-02-04T08:40:31.609Z,21.03
2019-02-04T08:43:20.248Z,20.03
2019-02-04T08:45:49.549Z,17.50
2019-02-04T08:48:19.032Z,15.73
2019-02-04T08:50:48.556Z,17.20
2019-02-04T08:53:17.961Z,14.97
2019-02-04T08:55:47.204Z,15.97
2019-02-04T08:58:16.309Z,15.80
2019-02-04T09:00:45.612Z,17.23
2019-02-04T09:03:15.000Z,16.43
2019-02-04T09:05:44.480Z,17.10
2019-02-04T09:08:14.170Z,16.10
2019-02-04T09:10:44.827Z,17.13
2019-02-04T09:13:13.950Z,15.70
2019-02-04T09:15:43.194Z,15.00
2019-02-04T09:18:12.742Z,15.53
2019-02-04T09:20:41.888Z,14.33
2019-02-04T09:23:12.273Z,16.80
2019-02-04T09:25:41.570Z,15.43
2019-02-04T09:28:11.064Z,14.67
2019-02-04T09:30:43.799Z,15.67
2019-02-04T09:33:13.063Z,14.10
2019-02-04T09:35:42.517Z,12.53
2019-02-04T09:38:11.791Z,13.03
2019-02-04T09:40:43.204Z,11.70
2019-02-04T09:43:12.839Z,12.27
2019-02-04T09:45:43.661Z,10.97
2019-02-04T09:48:16.474Z,12.13
2019-02-04T09:50:46.611Z,10.83
2019-02-04T09:53:15.564Z,9.53
2019-02-04T09:55:44.624Z,11.70
2019-02-04T09:58:13.439Z,9.23
2019-02-04T10:00:42.317Z,11.37
2019-02-04T10:03:11.519Z,8.80
2019-02-04T10:05:40.632Z,8.97
2019-02-04T10:08:09.700Z,8.80
2019-02-04T10:10:38.790Z,9.17
2019-02-04T10:13:07.887Z,10.27
2019-02-04T10:15:38.678Z,9.00
2019-02-04T10:18:08.947Z,8.33
2019-02-04T10:20:38.417Z,7.87
2019-02-04T10:23:07.711Z,8.10
2019-02-04T10:25:38.244Z,8.07
2019-02-04T10:28:08.085Z,10.87
2019-02-04T10:30:37.236Z,11.73
2019-02-04T10:33:06.243Z,9.60
2019-02-04T10:35:35.390Z,9.30
2019-02-04T10:38:04.839Z,11.00
2019-02-04T10:40:33.887Z,8.40
2019-02-04T10:43:02.922Z,10.13
2019-02-04T10:45:32.644Z,9.70
2019-02-04T10:48:01.717Z,10.17
2019-02-04T10:50:32.516Z,10.07
2019-02-04T10:53:01.738Z,8.07
2019-02-04T10:55:30.787Z,8.83
2019-02-04T10:57:59.965Z,8.87
2019-02-04T11:00:31.399Z,7.43
2019-02-04T11:03:00.764Z,7.73
2019-02-04T11:05:31.702Z,7.93
2019-02-04T11:08:00.804Z,7.00
2019-02-04T11:10:37.341Z,8.30
2019-02-04T11:13:09.314Z,7.33
2019-02-04T11:15:38.364Z,8.17
2019-02-04T11:18:08.123Z,7.90
2019-02-04T11:20:38.070Z,9.20
2019-02-04T11:23:08.244Z,9.93
2019-02-04T11:25:37.454Z,9.07
2019-02-04T11:28:08.092Z,10.53
2019-02-04T11:30:40.035Z,10.93
2019-02-04T11:33:09.338Z,9.03
2019-02-04T11:35:38.419Z,7.00
2019-02-04T11:38:07.656Z,8.07
2019-02-04T11:40:38.292Z,6.13
2019-02-04T11:43:07.422Z,6.17
2019-02-04T11:45:36.663Z,6.47
2019-02-04T11:48:08.459Z,7.30
2019-02-04T11:50:37.649Z,7.30
2019-02-04T11:53:06.626Z,8.77
2019-02-04T11:55:35.568Z,7.50
2019-02-04T11:58:07.716Z,6.17
2019-02-04T12:00:36.985Z,5.77
2019-02-04T12:03:06.261Z,6.03
2019-02-04T12:05:35.399Z,6.20
2019-02-04T12:08:04.573Z,5.53
2019-02-04T12:10:39.544Z,6.63
2019-02-04T12:13:08.897Z,6.13
2019-02-04T12:15:37.875Z,6.13
2019-02-04T12:18:06.897Z,5.70
2019-02-04T12:20:35.807Z,6.40
2019-02-04T12:23:04.962Z,7.00
2019-02-04T12:25:34.034Z,5.77
2019-02-04T12:28:04.409Z,5.30
2019-02-04T12:30:35.481Z,4.63
2019-02-04T12:33:07.046Z,4.23
2019-02-04T12:35:36.093Z,4.73
2019-02-04T12:38:05.271Z,4.40
2019-02-04T12:40:34.734Z,3.67
2019-02-04T12:43:03.863Z,3.27
2019-02-04T12:45:33.707Z,3.43
2019-02-04T12:48:02.787Z,3.57
2019-02-04T12:50:31.941Z,2.83
2019-02-04T12:53:01.045Z,3.27
2019-02-04T12:55:30.744Z,3.47
2019-02-04T12:58:00.026Z,3.37
2019-02-04T13:00:29.210Z,5.10
2019-02-04T13:02:58.396Z,2.80
2019-02-04T13:05:30.119Z,3.10
2019-02-04T13:07:59.260Z,2.90
2019-02-04T13:10:28.283Z,3.27
2019-02-04T13:12:57.275Z,3.77
2019-02-04T13:15:26.457Z,3.20
2019-02-04T13:17:55.590Z,3.50
2019-02-04T13:20:24.697Z,2.83
2019-02-04T13:22:53.843Z,2.87
2019-02-04T13:25:25.070Z,3.10
2019-02-04T13:27:54.167Z,2.70
2019-02-04T13:30:24.336Z,2.90
2019-02-04T13:32:53.270Z,2.77
2019-02-04T13:35:22.574Z,3.00
2019-02-04T13:37:52.025Z,2.60
2019-02-04T13:40:25.533Z,2.93
2019-02-04T13:42:54.728Z,2.67
2019-02-04T13:45:23.851Z,2.87
2019-02-04T13:47:53.130Z,2.20
2019-02-04T13:50:22.354Z,2.50
2019-02-04T13:52:51.847Z,2.40
2019-02-04T13:55:23.570Z,2.63
2019-02-04T13:57:52.493Z,2.00
2019-02-04T14:00:22.267Z,2.43
2019-02-04T14:02:58.854Z,2.40
2019-02-04T14:05:21.974Z,2.33
2019-02-04T14:07:50.893Z,2.50
2019-02-04T14:10:23.279Z,2.10
2019-02-04T14:12:52.202Z,2.27
2019-02-04T14:15:22.295Z,2.10
2019-02-04T14:17:51.457Z,2.03
2019-02-04T14:20:20.696Z,2.17
2019-02-04T14:22:49.906Z,1.83
2019-02-04T14:25:19.259Z,2.40
2019-02-04T14:27:48.247Z,2.40
2019-02-04T14:30:22.818Z,2.30
2019-02-04T14:32:52.218Z,2.00
2019-02-04T14:35:21.095Z,2.33
2019-02-04T14:37:50.131Z,2.10
2019-02-04T14:40:19.226Z,2.57
2019-02-04T14:42:50.901Z,2.13
2019-02-04T14:45:36.909Z,2.20
2019-02-04T14:48:21.315Z,2.20
2019-02-04T14:51:37.242Z,2.60
2019-02-04T14:54:38.250Z,2.60
2019-02-04T14:57:49.054Z,2.80
2019-02-04T15:01:08.238Z,3.10
2019-02-04T15:04:06.355Z,2.50
2019-02-04T15:07:28.633Z,2.27
2019-02-04T15:10:25.210Z,2.20
2019-02-04T15:13:18.086Z,2.47
2019-02-04T15:16:12.341Z,2.50
2019-02-04T15:19:14.299Z,2.50
2019-02-04T15:22:09.803Z,2.40
2019-02-04T15:25:10.214Z,2.67
2019-02-04T15:28:07.212Z,2.43
2019-02-04T15:30:51.678Z,2.60
2019-02-04T15:33:50.721Z,2.80
2019-02-04T15:36:32.386Z,2.80
2019-02-04T15:39:32.447Z,2.80
2019-02-04T15:42:34.269Z,3.90
2019-02-04T15:45:19.250Z,3.50
2019-02-04T15:48:09.370Z,2.23
2019-02-04T15:51:07.894Z,2.53
2019-02-04T15:53:37.012Z,2.77
2019-02-04T15:56:07.270Z,2.53
2019-02-04T15:58:36.239Z,2.70
2019-02-04T16:01:05.569Z,3.17
2019-02-04T16:03:34.480Z,3.27
2019-02-04T16:06:03.514Z,2.47
2019-02-04T16:08:32.440Z,2.83
2019-02-04T16:11:01.422Z,2.97
2019-02-04T16:13:30.362Z,2.60
2019-02-04T16:15:59.449Z,3.00
2019-02-04T16:18:28.682Z,2.40
2019-02-04T16:20:57.531Z,2.83
2019-02-04T16:23:26.509Z,2.60
2019-02-04T16:25:56.938Z,2.63
2019-02-04T16:28:26.342Z,2.77
2019-02-04T16:30:55.492Z,2.80
2019-02-04T16:33:24.621Z,2.40
2019-02-04T16:35:53.895Z,2.63
2019-02-04T16:38:22.921Z,2.93
2019-02-04T16:40:51.986Z,3.17
2019-02-04T16:43:21.199Z,2.70
2019-02-04T16:45:50.047Z,2.97
2019-02-04T16:48:18.904Z,2.60
2019-02-04T16:51:03.342Z,3.67
2019-02-04T16:53:18.431Z,2.60
2019-02-04T16:55:47.397Z,2.60
2019-02-04T16:58:16.409Z,2.47
2019-02-04T17:00:45.303Z,2.97
2019-02-04T17:03:14.335Z,2.57
2019-02-04T17:05:43.339Z,3.10
2019-02-04T17:08:12.503Z,3.10
2019-02-04T17:10:41.409Z,2.83
2019-02-04T17:13:10.737Z,3.20
2019-02-04T17:15:39.731Z,2.97
2019-02-04T17:18:08.646Z,3.17
2019-02-04T17:20:37.682Z,3.00
2019-02-04T17:23:06.937Z,3.00
2019-02-04T17:25:35.978Z,3.20
2019-02-04T17:28:05.827Z,3.37
2019-02-04T17:30:34.950Z,3.27
2019-02-04T17:33:04.071Z,3.87
2019-02-04T17:35:33.051Z,3.00
2019-02-04T17:38:04.158Z,3.07
2019-02-04T17:40:32.672Z,3.27
2019-02-04T17:43:01.654Z,3.27
2019-02-04T17:45:30.598Z,3.00
2019-02-04T17:47:59.678Z,3.20
2019-02-04T17:50:28.730Z,3.50
2019-02-04T17:52:57.711Z,6.10
2019-02-04T17:55:27.061Z,3.73
2019-02-04T17:57:56.551Z,3.90
2019-02-04T18:00:41.549Z,4.23
2019-02-04T18:03:10.643Z,3.40
2019-02-04T18:05:39.594Z,3.93
2019-02-04T18:08:08.964Z,4.10
2019-02-04T18:10:37.895Z,4.43
2019-02-04T18:13:06.930Z,3.50
2019-02-04T18:15:35.976Z,3.67
2019-02-04T18:18:05.327Z,3.60
2019-02-04T18:20:34.345Z,6.60
2019-02-04T18:23:03.175Z,5.80
2019-02-04T18:25:32.542Z,5.03
2019-02-04T18:28:01.602Z,6.03
2019-02-04T18:30:30.991Z,4.53
2019-02-04T18:33:00.302Z,5.33
2019-02-04T18:35:29.567Z,4.77
2019-02-04T18:37:58.508Z,4.03
2019-02-04T18:40:27.562Z,4.10
2019-02-04T18:42:56.922Z,4.20
2019-02-04T18:45:29.743Z,4.40
2019-02-04T18:47:58.748Z,4.70
2019-02-04T18:50:28.203Z,4.70
2019-02-04T18:52:57.451Z,5.03
2019-02-04T18:55:31.296Z,5.00
2019-02-04T18:58:00.750Z,5.10
2019-02-04T19:00:30.681Z,5.30
2019-02-04T19:03:00.355Z,5.27
2019-02-04T19:05:29.587Z,5.00
2019-02-04T19:07:58.599Z,5.53
2019-02-04T19:10:27.561Z,4.97
2019-02-04T19:12:56.457Z,5.77
2019-02-04T19:15:25.522Z,6.17
2019-02-04T19:17:56.986Z,5.07
2019-02-04T19:20:26.064Z,5.93
2019-02-04T19:22:55.022Z,5.13
2019-02-04T19:25:25.059Z,5.70
2019-02-04T19:27:54.035Z,5.80
2019-02-04T19:30:31.593Z,5.67
2019-02-04T19:33:01.969Z,6.23
2019-02-04T19:35:34.234Z,6.00
2019-02-04T19:38:03.376Z,5.27
2019-02-04T19:40:32.354Z,6.53
2019-02-04T19:43:01.191Z,6.00
2019-02-04T19:45:30.655Z,6.77
2019-02-04T19:47:59.691Z,6.20
2019-02-04T19:50:30.413Z,6.47
2019-02-04T19:52:59.757Z,6.20
2019-02-04T19:55:28.979Z,6.20
2019-02-04T19:57:58.031Z,7.70
2019-02-04T20:00:27.739Z,6.93
2019-02-04T20:02:56.887Z,6.90
2019-02-04T20:05:26.017Z,6.83
2019-02-04T20:07:55.353Z,7.00
2019-02-04T20:10:26.125Z,6.87
2019-02-04T20:12:55.382Z,6.73
2019-02-04T20:15:26.600Z,7.43
2019-02-04T20:17:55.738Z,6.20
2019-02-04T20:20:25.307Z,7.03
2019-02-04T20:22:54.310Z,6.63
2019-02-04T20:25:25.240Z,5.53
2019-02-04T20:27:54.286Z,6.53
2019-02-04T20:30:32.001Z,7.00
2019-02-04T20:33:01.021Z,7.27
2019-02-04T20:35:30.170Z,6.00
2019-02-04T20:37:59.226Z,6.13
2019-02-04T20:40:29.157Z,6.77
2019-02-04T20:42:58.342Z,6.30
2019-02-04T20:45:28.428Z,6.50
2019-02-04T20:47:57.544Z,5.80
2019-02-04T20:50:28.772Z,6.30
2019-02-04T20:52:57.666Z,9.03
2019-02-04T20:55:26.638Z,8.23
2019-02-04T20:57:55.766Z,9.70
2019-02-04T21:00:26.545Z,10.53
2019-02-04T21:02:55.597Z,9.20
2019-02-04T21:05:24.745Z,10.23
2019-02-04T21:07:53.892Z,16.33
2019-02-04T21:10:23.707Z,18.93
2019-02-04T21:12:53.031Z,11.70
2019-02-04T21:15:22.584Z,13.70
2019-02-04T21:17:52.053Z,11.17
2019-02-04T21:20:23.511Z,12.53
2019-02-04T21:22:52.853Z,12.73
2019-02-04T21:25:21.914Z,12.43
2019-02-04T21:27:51.514Z,7.20
2019-02-04T21:30:22.838Z,10.17
2019-02-04T21:32:51.738Z,10.63
2019-02-04T21:35:20.851Z,9.57
2019-02-04T21:37:49.973Z,7.93
2019-02-04T21:40:19.423Z,12.83
2019-02-04T21:42:49.007Z,11.40
2019-02-04T21:45:19.377Z,11.00
2019-02-04T21:47:48.589Z,10.20
2019-02-04T21:50:19.451Z,15.37
2019-02-04T21:52:48.550Z,9.63
2019-02-04T21:55:17.925Z,12.67
2019-02-04T21:57:47.109Z,12.37
2019-02-04T22:00:27.899Z,14.13
2019-02-04T22:02:56.881Z,11.37
2019-02-04T22:05:27.239Z,9.53
2019-02-04T22:07:56.230Z,8.20
2019-02-04T22:10:26.234Z,7.87
2019-02-04T22:12:55.219Z,8.20
2019-02-04T22:15:24.334Z,9.27
2019-02-04T22:17:53.589Z,9.60
2019-02-04T22:20:23.062Z,9.10
2019-02-04T22:22:52.017Z,9.40
2019-02-04T22:25:22.122Z,11.53
2019-02-04T22:27:51.206Z,9.43
2019-02-04T22:30:21.973Z,7.50
2019-02-04T22:32:51.049Z,8.07
2019-02-04T22:35:20.129Z,6.77
2019-02-04T22:37:49.115Z,8.07
2019-02-04T22:40:25.926Z,6.23
2019-02-04T22:42:55.538Z,5.67
2019-02-04T22:45:24.667Z,6.17
2019-02-04T22:47:53.759Z,9.10
2019-02-04T22:50:30.074Z,11.60
2019-02-04T22:53:02.181Z,10.80
2019-02-04T22:55:32.381Z,6.97
2019-02-04T22:58:01.101Z,5.13
2019-02-04T23:00:43.450Z,6.13
2019-02-04T23:03:13.278Z,7.03
2019-02-04T23:05:42.313Z,6.93
2019-02-04T23:08:11.307Z,8.10
2019-02-04T23:10:40.388Z,7.20
2019-02-04T23:13:09.553Z,6.00
2019-02-04T23:15:38.517Z,6.63
2019-02-04T23:18:07.760Z,6.07
2019-02-04T23:20:36.751Z,5.67
2019-02-04T23:23:05.844Z,5.90
2019-02-04T23:25:43.080Z,5.70
2019-02-04T23:28:06.078Z,5.80
2019-02-04T23:30:35.334Z,6.63
2019-02-04T23:33:05.194Z,6.73
2019-02-04T23:35:34.119Z,9.40
2019-02-04T23:38:03.410Z,6.67
2019-02-04T23:40:32.319Z,6.77
2019-02-04T23:43:01.314Z,7.43
2019-02-04T23:45:30.300Z,7.87
2019-02-04T23:47:59.486Z,8.07
2019-02-04T23:50:28.430Z,7.33
2019-02-04T23:52:57.437Z,6.73
2019-02-04T23:55:26.452Z,6.23
2019-02-04T23:57:55.514Z,5.33
